Time;durP1;ratioP1;P1;durP2;ratioP2;P2;SDS_P1;SDS_P2;PMS_P1;PMS_P2;Temp;Humidity;BMP_temperature;BMP_pressure;BME280_temperature;BME280_humidity;BME280_pressure;Samples;Min_cycle;Max_cycle;Signal;HPM_P1;HPM_P2
2023/05/27 00:00:32;;;;;;;14.50;3.25;;;14.30;99.90;;;;;;4997757;28;20052;-68
2023/05/27 00:03:00;;;;;;;11.20;3.00;;;14.30;99.90;;;;;;4996581;28;20031;-68
2023/05/27 00:05:25;;;;;;;11.23;2.53;;;14.20;99.90;;;;;;4997650;28;20033;-68
2023/05/27 00:07:51;;;;;;;10.38;2.55;;;14.20;99.90;;;;;;4997581;28;20031;-68
2023/05/27 00:10:17;;;;;;;13.50;3.13;;;14.20;99.90;;;;;;4998592;28;20084;-68
2023/05/27 00:12:42;;;;;;;10.85;3.35;;;14.10;99.90;;;;;;4997552;28;20022;-69
2023/05/27 00:15:08;;;;;;;12.57;3.10;;;14.10;99.90;;;;;;4998590;28;20061;-69
2023/05/27 00:17:35;;;;;;;12.10;3.22;;;14.00;99.90;;;;;;4997401;28;20031;-69
2023/05/27 00:20:07;;;;;;;12.38;3.00;;;13.90;99.90;;;;;;4998374;28;20026;-69
2023/05/27 00:22:34;;;;;;;11.10;3.00;;;13.90;99.90;;;;;;4997383;28;20117;-69
2023/05/27 00:25:00;;;;;;;14.48;3.00;;;13.80;99.90;;;;;;4963492;28;1052456;-68
2023/05/27 00:27:25;;;;;;;11.52;3.00;;;13.80;99.90;;;;;;4998518;28;20027;-68
2023/05/27 00:29:51;;;;;;;11.55;2.97;;;13.90;99.90;;;;;;4998178;28;20022;-68
2023/05/27 00:32:16;;;;;;;15.35;2.72;;;14.00;99.90;;;;;;4998233;28;20026;-67
2023/05/27 00:34:42;;;;;;;17.05;3.35;;;13.90;99.90;;;;;;4998832;28;20026;-68
2023/05/27 00:37:08;;;;;;;13.45;3.47;;;13.90;99.90;;;;;;4998204;28;20130;-68
2023/05/27 00:39:33;;;;;;;12.68;3.20;;;13.90;99.90;;;;;;4998774;28;20040;-68
2023/05/27 00:42:00;;;;;;;10.15;3.10;;;13.70;99.90;;;;;;4998484;28;20097;-68
2023/05/27 00:44:26;;;;;;;14.68;3.72;;;13.50;99.90;;;;;;4997867;28;20022;-67
2023/05/27 00:46:52;;;;;;;13.10;2.90;;;13.50;99.90;;;;;;4997854;28;20027;-68
2023/05/27 00:49:18;;;;;;;9.10;2.88;;;13.30;99.90;;;;;;4998678;28;20120;-68
2023/05/27 00:51:45;;;;;;;14.13;3.15;;;13.20;99.90;;;;;;4998686;28;20066;-68
2023/05/27 00:54:11;;;;;;;13.02;3.80;;;13.50;99.90;;;;;;4998544;28;20022;-68
2023/05/27 00:56:37;;;;;;;18.90;4.03;;;13.40;99.90;;;;;;4997731;28;20048;-67
2023/05/27 00:59:03;;;;;;;15.57;3.50;;;13.00;99.90;;;;;;4997655;28;20018;-67
2023/05/27 01:01:29;;;;;;;14.85;3.25;;;12.90;99.90;;;;;;4998365;28;20034;-68
2023/05/27 01:03:56;;;;;;;15.63;3.92;;;12.90;99.90;;;;;;4998324;28;20027;-68
2023/05/27 01:07:02;;;;;;;13.93;4.10;;;13.10;99.90;;;;;;4998322;28;20026;-67
2023/05/27 01:09:52;;;;;;;12.45;3.03;;;13.10;99.90;;;;;;4998403;28;20026;-68
2023/05/27 01:12:39;;;;;;;18.52;4.28;;;12.90;99.90;;;;;;4997153;28;20033;-67
2023/05/27 01:15:06;;;;;;;17.05;4.30;;;12.80;99.90;;;;;;4998266;28;20022;-67
2023/05/27 01:17:37;;;;;;;13.57;3.95;;;12.80;99.90;;;;;;4997159;28;20149;-67
2023/05/27 01:20:05;;;;;;;14.73;4.38;;;12.70;99.90;;;;;;4997424;28;20030;-68
2023/05/27 01:22:31;;;;;;;15.27;3.75;;;12.70;99.90;;;;;;4997988;28;20092;-68
2023/05/27 01:24:57;;;;;;;23.08;3.55;;;12.50;99.90;;;;;;4997547;28;20035;-69
2023/05/27 01:27:26;;;;;;;20.27;3.53;;;12.60;99.90;;;;;;4997289;28;20147;-68
2023/05/27 01:29:53;;;;;;;12.68;2.92;;;12.80;99.90;;;;;;4998042;28;20074;-68
2023/05/27 01:32:26;;;;;;;14.48;4.72;;;12.90;99.90;;;;;;4997450;28;20109;-68
2023/05/27 01:35:04;;;;;;;13.32;3.40;;;12.90;99.90;;;;;;4997882;28;20057;-68
2023/05/27 01:37:35;;;;;;;15.00;3.47;;;13.00;99.90;;;;;;4997842;28;20062;-68
2023/05/27 01:40:05;;;;;;;18.60;3.80;;;12.90;99.90;;;;;;4998037;28;20072;-68
2023/05/27 01:42:36;;;;;;;9.85;3.53;;;12.90;99.90;;;;;;4997866;28;20121;-68
2023/05/27 01:45:06;;;;;;;14.35;3.40;;;12.70;99.90;;;;;;4997810;28;20061;-68
2023/05/27 01:47:32;;;;;;;15.20;3.60;;;12.60;99.90;;;;;;4996866;28;20141;-68
2023/05/27 01:49:57;;;;;;;12.27;3.28;;;12.60;99.90;;;;;;4997221;28;20058;-68
2023/05/27 01:52:23;;;;;;;17.25;3.85;;;12.40;99.90;;;;;;4996888;28;20034;-68
2023/05/27 01:54:48;;;;;;;16.67;3.40;;;12.50;99.90;;;;;;4996622;28;20125;-68
2023/05/27 01:57:14;;;;;;;11.02;3.20;;;12.50;99.90;;;;;;4996863;28;20034;-68
2023/05/27 01:59:40;;;;;;;15.07;3.80;;;12.60;99.90;;;;;;4997701;28;20026;-68
2023/05/27 02:02:06;;;;;;;14.43;3.92;;;12.30;99.90;;;;;;4996687;28;20026;-68
2023/05/27 02:04:31;;;;;;;14.55;3.33;;;12.10;99.90;;;;;;4996927;28;20029;-68
2023/05/27 02:06:57;;;;;;;11.27;3.72;;;12.10;99.90;;;;;;4996682;28;20068;-68
2023/05/27 02:09:22;;;;;;;15.23;3.95;;;12.10;99.90;;;;;;4996942;28;20030;-68
2023/05/27 02:11:48;;;;;;;12.65;3.40;;;12.20;99.90;;;;;;4997527;28;20030;-68
2023/05/27 02:14:14;;;;;;;10.38;3.67;;;12.30;99.90;;;;;;4996670;28;20023;-68
2023/05/27 02:16:39;;;;;;;14.32;4.03;;;12.40;99.90;;;;;;4996740;28;20033;-68
2023/05/27 02:19:05;;;;;;;14.02;3.95;;;12.40;99.90;;;;;;4997686;28;20022;-68
2023/05/27 02:21:31;;;;;;;12.05;3.42;;;12.40;99.90;;;;;;4996565;28;20027;-68
2023/05/27 02:23:57;;;;;;;13.52;4.57;;;12.60;99.90;;;;;;4997040;28;20030;-68
2023/05/27 02:26:23;;;;;;;9.63;3.78;;;12.50;99.90;;;;;;5000143;28;20049;-68
2023/05/27 02:28:49;;;;;;;13.70;3.78;;;12.50;99.90;;;;;;5000520;28;20023;-68
2023/05/27 02:31:14;;;;;;;20.90;3.40;;;12.60;99.90;;;;;;5001362;28;20101;-68
2023/05/27 02:33:40;;;;;;;12.45;3.90;;;12.30;99.90;;;;;;5000859;28;20026;-68
2023/05/27 02:36:06;;;;;;;13.13;3.60;;;12.30;99.90;;;;;;5000449;28;20030;-68
2023/05/27 02:38:32;;;;;;;17.52;4.07;;;12.40;99.90;;;;;;5001168;28;20037;-68
2023/05/27 02:40:57;;;;;;;14.15;3.88;;;12.40;99.90;;;;;;5001299;28;20026;-68
2023/05/27 02:43:23;;;;;;;13.15;4.05;;;12.30;99.90;;;;;;5000286;28;20030;-68
2023/05/27 02:45:49;;;;;;;13.05;4.20;;;12.30;99.90;;;;;;5001187;28;20030;-68
2023/05/27 02:48:14;;;;;;;11.35;3.95;;;12.40;99.90;;;;;;5000946;28;20142;-68
2023/05/27 02:50:40;;;;;;;17.55;4.15;;;12.30;99.90;;;;;;5000447;28;20150;-68
2023/05/27 02:53:05;;;;;;;20.55;4.03;;;12.30;99.90;;;;;;5000265;28;20026;-68
2023/05/27 02:55:31;;;;;;;14.07;3.65;;;11.90;99.90;;;;;;4999850;28;20037;-68
2023/05/27 02:57:56;;;;;;;13.77;3.95;;;12.00;99.90;;;;;;4999802;28;20026;-68
2023/05/27 03:00:22;;;;;;;10.25;3.30;;;11.80;99.90;;;;;;4999910;28;20117;-68
2023/05/27 03:02:48;;;;;;;13.73;3.63;;;11.70;99.90;;;;;;4999893;28;20050;-68
2023/05/27 03:05:13;;;;;;;13.07;3.80;;;11.80;99.90;;;;;;4999750;28;20093;-68
2023/05/27 03:07:41;;;;;;;14.20;4.22;;;11.40;99.90;;;;;;5000940;28;20026;-68
2023/05/27 03:10:07;;;;;;;12.60;3.70;;;11.60;99.90;;;;;;5000547;28;20042;-68
2023/05/27 03:12:33;;;;;;;17.42;3.80;;;11.70;99.90;;;;;;5000572;28;20089;-68
2023/05/27 03:14:58;;;;;;;15.73;4.07;;;11.70;99.90;;;;;;4999494;28;20031;-68
2023/05/27 03:17:24;;;;;;;13.65;4.13;;;11.60;99.90;;;;;;4999577;28;20022;-68
2023/05/27 03:19:50;;;;;;;14.10;3.55;;;11.80;99.90;;;;;;5000603;28;20023;-68
2023/05/27 03:22:16;;;;;;;14.93;3.70;;;11.60;99.90;;;;;;4999549;28;20031;-68
2023/05/27 03:24:42;;;;;;;23.17;4.90;;;11.60;99.90;;;;;;5000083;28;20026;-68
2023/05/27 03:27:07;;;;;;;24.25;4.13;;;11.40;99.90;;;;;;4999466;28;20027;-68
2023/05/27 03:29:33;;;;;;;16.17;4.47;;;11.30;99.90;;;;;;4999319;28;20023;-68
2023/05/27 03:31:59;;;;;;;12.88;4.05;;;11.00;99.90;;;;;;4999272;28;20026;-68
2023/05/27 03:34:25;;;;;;;17.88;4.80;;;10.80;99.90;;;;;;4999173;28;20080;-68
2023/05/27 03:36:50;;;;;;;17.55;3.85;;;11.10;99.90;;;;;;4999101;28;20019;-68
2023/05/27 03:39:16;;;;;;;17.25;4.38;;;11.40;99.90;;;;;;5000137;28;20043;-68
2023/05/27 03:41:43;;;;;;;15.82;4.00;;;11.40;99.90;;;;;;4999906;28;20169;-68
2023/05/27 03:44:09;;;;;;;20.40;5.00;;;11.30;99.90;;;;;;4999158;28;20037;-68
2023/05/27 03:46:35;;;;;;;14.88;4.63;;;11.20;99.90;;;;;;4999285;28;20026;-68
2023/05/27 03:49:01;;;;;;;15.35;3.33;;;11.40;99.90;;;;;;4999015;28;20030;-68
2023/05/27 03:51:26;;;;;;;15.07;3.90;;;11.20;99.90;;;;;;5000116;28;20023;-68
2023/05/27 03:53:52;;;;;;;17.58;4.55;;;11.00;99.90;;;;;;4999206;28;20106;-68
2023/05/27 03:56:18;;;;;;;11.48;3.58;;;10.90;99.90;;;;;;4999730;28;20026;-68
2023/05/27 03:58:43;;;;;;;15.02;3.97;;;10.90;99.90;;;;;;4998815;28;20053;-68
2023/05/27 04:01:09;;;;;;;16.77;3.90;;;11.10;99.90;;;;;;4998789;28;20077;-68
2023/05/27 04:03:35;;;;;;;13.43;4.88;;;11.20;99.90;;;;;;4998755;28;20049;-68
2023/05/27 04:06:00;;;;;;;12.98;3.47;;;11.10;99.90;;;;;;4999428;28;20093;-68
2023/05/27 04:08:27;;;;;;;15.18;4.03;;;11.10;99.90;;;;;;4998656;28;20026;-68
2023/05/27 04:10:53;;;;;;;17.13;4.03;;;11.30;99.90;;;;;;4998925;28;20019;-68
2023/05/27 04:13:19;;;;;;;15.70;3.70;;;11.10;99.90;;;;;;4999268;28;20031;-68
2023/05/27 04:15:46;;;;;;;20.02;4.20;;;11.10;99.90;;;;;;4999489;28;20027;-68
2023/05/27 04:18:11;;;;;;;16.67;3.78;;;11.20;99.90;;;;;;4998448;28;20036;-68
2023/05/27 04:20:40;;;;;;;13.85;4.07;;;11.50;99.90;;;;;;4998393;28;20080;-68
2023/05/27 04:23:06;;;;;;;8.15;3.58;;;11.60;99.90;;;;;;4998132;28;20037;-68
2023/05/27 04:25:31;;;;;;;19.05;4.13;;;11.70;99.90;;;;;;4998979;28;20117;-68
2023/05/27 04:27:57;;;;;;;12.63;3.85;;;11.80;99.90;;;;;;4998858;28;20104;-68
2023/05/27 04:30:23;;;;;;;13.82;3.42;;;11.90;99.90;;;;;;4999030;28;20046;-68
2023/05/27 04:32:48;;;;;;;15.77;3.92;;;11.90;99.90;;;;;;4998108;28;20030;-68
2023/05/27 04:35:14;;;;;;;19.08;3.95;;;12.00;99.90;;;;;;4998155;28;20022;-68
2023/05/27 04:37:40;;;;;;;11.30;3.50;;;12.00;99.90;;;;;;4999000;28;20050;-68
2023/05/27 04:40:08;;;;;;;15.57;4.13;;;11.80;99.90;;;;;;4998374;28;20030;-68
2023/05/27 04:42:36;;;;;;;13.63;3.38;;;11.90;99.90;;;;;;4998742;28;20026;-68
2023/05/27 04:45:09;;;;;;;13.68;3.60;;;11.80;99.90;;;;;;4997861;28;20030;-68
2023/05/27 04:47:36;;;;;;;13.32;4.50;;;11.70;99.90;;;;;;4997668;28;20026;-68
2023/05/27 04:50:05;;;;;;;14.73;3.88;;;11.50;99.90;;;;;;4997867;28;20045;-68
2023/05/27 04:52:36;;;;;;;11.13;3.55;;;11.60;99.90;;;;;;4998038;28;20026;-68
2023/05/27 04:55:07;;;;;;;15.65;3.83;;;11.70;99.90;;;;;;4998627;28;20030;-69
2023/05/27 04:57:33;;;;;;;15.38;3.85;;;11.60;99.90;;;;;;4997738;28;20027;-68
2023/05/27 05:02:34;;;;;;;14.98;4.82;;;11.70;99.90;;;;;;4998760;28;20026;-68
2023/05/27 05:05:03;;;;;;;19.52;4.57;;;11.70;99.90;;;;;;4997528;28;20030;-68
2023/05/27 05:07:29;;;;;;;12.65;4.03;;;11.80;99.90;;;;;;4998420;28;20049;-68
2023/05/27 05:09:55;;;;;;;16.98;4.15;;;11.80;99.90;;;;;;4997533;28;20031;-68
2023/05/27 05:12:20;;;;;;;16.05;3.63;;;11.80;99.90;;;;;;4998386;28;20082;-68
2023/05/27 05:14:46;;;;;;;14.90;3.90;;;11.70;99.90;;;;;;4997662;28;20033;-68
2023/05/27 05:17:11;;;;;;;18.08;4.20;;;11.80;99.90;;;;;;4997419;28;20035;-68
2023/05/27 05:19:37;;;;;;;18.73;3.80;;;11.80;99.90;;;;;;4997392;28;20026;-68
2023/05/27 05:22:03;;;;;;;21.17;4.30;;;11.70;99.90;;;;;;4998275;28;20053;-68
2023/05/27 05:24:28;;;;;;;12.80;4.47;;;11.70;99.90;;;;;;4997472;28;20153;-68
2023/05/27 05:26:54;;;;;;;15.52;4.80;;;12.00;99.90;;;;;;4998248;28;20026;-68
2023/05/27 05:29:20;;;;;;;15.90;4.43;;;11.90;99.90;;;;;;4997237;28;20026;-68
2023/05/27 05:31:45;;;;;;;17.92;3.88;;;12.10;99.90;;;;;;4997222;28;20034;-68
2023/05/27 05:34:11;;;;;;;14.55;4.90;;;11.90;99.90;;;;;;4998006;28;20033;-68
2023/05/27 05:36:37;;;;;;;20.20;4.50;;;12.00;99.90;;;;;;4997203;28;20090;-68
2023/05/27 05:39:03;;;;;;;19.02;4.57;;;12.10;99.90;;;;;;4997175;28;20114;-68
2023/05/27 05:41:29;;;;;;;14.70;4.55;;;12.10;99.90;;;;;;4996987;28;20030;-68
2023/05/27 05:43:55;;;;;;;18.40;4.13;;;12.10;99.90;;;;;;4997747;28;20101;-68
2023/05/27 05:46:20;;;;;;;17.50;4.63;;;12.10;99.90;;;;;;4997738;28;20023;-68
2023/05/27 05:48:46;;;;;;;19.30;4.10;;;12.10;99.90;;;;;;4997842;28;20026;-68
2023/05/27 05:51:11;;;;;;;20.23;4.88;;;12.10;99.90;;;;;;4997886;28;20031;-68
2023/05/27 05:53:37;;;;;;;23.17;4.28;;;12.20;99.90;;;;;;4996744;28;20037;-68
2023/05/27 05:56:02;;;;;;;18.42;4.38;;;12.30;99.90;;;;;;4997790;28;20034;-68
2023/05/27 05:58:28;;;;;;;13.95;3.60;;;12.50;99.90;;;;;;4997573;28;20022;-68
2023/05/27 06:00:54;;;;;;;18.70;4.63;;;12.70;99.90;;;;;;4996225;28;20022;-68
2023/05/27 06:03:19;;;;;;;15.88;4.10;;;12.90;99.90;;;;;;4997423;28;20040;-68
2023/05/27 06:05:45;;;;;;;13.88;3.88;;;13.10;99.90;;;;;;4997563;28;20018;-68
2023/05/27 06:08:11;;;;;;;17.60;5.03;;;13.00;99.90;;;;;;4996690;28;20022;-68
2023/05/27 06:10:36;;;;;;;16.70;5.35;;;13.10;99.90;;;;;;4996620;28;20026;-68
2023/05/27 06:13:02;;;;;;;15.07;4.22;;;13.00;99.90;;;;;;4996725;28;20023;-68
2023/05/27 06:15:28;;;;;;;18.17;4.50;;;13.10;99.90;;;;;;4997494;28;20032;-68
2023/05/27 06:17:53;;;;;;;13.27;4.75;;;13.20;99.90;;;;;;4996752;28;20023;-68
2023/05/27 06:20:19;;;;;;;22.85;4.35;;;13.20;99.90;;;;;;4996886;28;20062;-68
2023/05/27 06:22:47;;;;;;;14.43;3.67;;;13.20;99.90;;;;;;4997136;28;20030;-68
2023/05/27 06:25:12;;;;;;;17.42;4.22;;;13.40;99.90;;;;;;5021268;22;20038;-72
2023/05/27 06:27:38;;;;;;;18.50;4.05;;;13.40;99.90;;;;;;4997060;28;20029;-72
2023/05/27 06:30:05;;;;;;;11.20;3.35;;;13.50;99.90;;;;;;4996656;28;20019;-72
2023/05/27 06:32:30;;;;;;;10.05;3.80;;;13.70;99.90;;;;;;4996484;28;20026;-72
2023/05/27 06:34:56;;;;;;;9.15;4.13;;;13.80;99.90;;;;;;4997382;28;20099;-72
2023/05/27 06:37:21;;;;;;;12.52;4.57;;;13.90;99.90;;;;;;4996584;28;20023;-72
2023/05/27 06:39:47;;;;;;;16.33;3.63;;;13.90;99.90;;;;;;4997265;28;20030;-72
2023/05/27 06:42:13;;;;;;;15.35;4.60;;;14.10;99.90;;;;;;4997271;28;20046;-72
2023/05/27 06:44:39;;;;;;;19.02;3.88;;;14.20;99.90;;;;;;4997257;28;20022;-72
2023/05/27 06:47:04;;;;;;;15.38;4.47;;;14.20;99.90;;;;;;4997542;28;20069;-72
2023/05/27 06:49:30;;;;;;;15.45;4.57;;;14.30;99.90;;;;;;4997642;28;20026;-72
2023/05/27 06:51:56;;;;;;;15.95;4.97;;;14.40;99.90;;;;;;4996353;28;20033;-72
2023/05/27 06:54:21;;;;;;;16.48;3.72;;;14.30;99.90;;;;;;4996272;28;20061;-72
2023/05/27 06:56:47;;;;;;;9.88;4.00;;;14.40;99.90;;;;;;4997142;28;20117;-71
2023/05/27 06:59:12;;;;;;;16.77;4.80;;;14.40;99.90;;;;;;4997276;28;20030;-71
2023/05/27 07:01:38;;;;;;;10.70;4.00;;;14.50;99.90;;;;;;4996338;28;20028;-71
2023/05/27 07:04:03;;;;;;;14.27;3.90;;;14.70;99.90;;;;;;4996470;28;20033;-70
2023/05/27 07:06:29;;;;;;;11.98;3.55;;;14.80;99.90;;;;;;4996972;28;20023;-71
2023/05/27 07:08:55;;;;;;;14.13;4.10;;;14.90;99.90;;;;;;4997751;28;20050;-71
2023/05/27 07:11:21;;;;;;;14.57;4.07;;;15.00;99.90;;;;;;4998534;28;20018;-71
2023/05/27 07:13:47;;;;;;;14.48;3.95;;;15.00;99.90;;;;;;4999604;28;20031;-71
2023/05/27 07:16:12;;;;;;;15.45;3.97;;;15.10;99.90;;;;;;4999665;28;20037;-71
2023/05/27 07:18:38;;;;;;;10.43;3.53;;;15.20;99.90;;;;;;4999515;28;20117;-71
2023/05/27 07:21:03;;;;;;;14.07;4.20;;;15.20;99.90;;;;;;5000998;28;20034;-71
2023/05/27 07:23:29;;;;;;;14.20;4.38;;;15.30;99.90;;;;;;4999160;28;20080;-72
2023/05/27 07:25:55;;;;;;;14.63;3.75;;;15.40;99.90;;;;;;4999553;28;20030;-71
2023/05/27 07:28:20;;;;;;;18.92;4.47;;;15.50;99.90;;;;;;5000284;28;20023;-71
2023/05/27 07:30:46;;;;;;;14.02;3.67;;;15.60;99.90;;;;;;4999614;28;20026;-71
2023/05/27 07:33:11;;;;;;;13.30;4.30;;;15.60;99.90;;;;;;4983304;28;20131;-71
2023/05/27 07:35:38;;;;;;;14.35;3.53;;;15.70;99.90;;;;;;4999912;28;20055;-71
2023/05/27 07:38:03;;;;;;;9.80;3.22;;;15.80;99.90;;;;;;5000210;28;20026;-70
2023/05/27 07:40:29;;;;;;;8.07;3.42;;;15.80;99.90;;;;;;4999134;28;20026;-70
2023/05/27 07:42:54;;;;;;;17.05;3.83;;;15.90;99.90;;;;;;4999109;28;20049;-70
2023/05/27 07:45:22;;;;;;;10.82;3.63;;;16.00;99.90;;;;;;4999436;28;20138;-70
2023/05/27 07:47:48;;;;;;;12.15;3.78;;;16.10;99.90;;;;;;4999064;28;20030;-70
2023/05/27 07:50:14;;;;;;;11.23;3.53;;;16.10;99.90;;;;;;5000333;28;20026;-71
2023/05/27 07:52:41;;;;;;;9.52;3.60;;;16.10;99.90;;;;;;4998880;28;20034;-70
2023/05/27 07:55:07;;;;;;;12.38;3.40;;;16.20;99.90;;;;;;4998834;28;20026;-70
2023/05/27 07:57:32;;;;;;;9.93;2.90;;;16.30;99.90;;;;;;4999711;28;20022;-70
2023/05/27 07:59:58;;;;;;;13.48;3.58;;;16.40;99.90;;;;;;4999119;28;20048;-71
2023/05/27 08:02:25;;;;;;;12.25;4.05;;;16.50;99.90;;;;;;4998684;28;20033;-70
2023/05/27 08:04:51;;;;;;;11.93;3.25;;;16.60;99.90;;;;;;4998766;28;20050;-70
2023/05/27 08:07:16;;;;;;;13.07;3.30;;;16.50;99.90;;;;;;4999536;28;20065;-70
2023/05/27 08:09:42;;;;;;;12.10;3.45;;;16.70;99.90;;;;;;4998633;28;20022;-70
2023/05/27 08:12:08;;;;;;;20.88;3.75;;;16.80;99.90;;;;;;4998598;28;20027;-70
2023/05/27 08:14:38;;;;;;;9.57;3.78;;;16.80;99.90;;;;;;4998690;28;20027;-70
2023/05/27 08:17:04;;;;;;;13.18;4.07;;;16.90;99.90;;;;;;4999684;28;20033;-70
2023/05/27 08:19:29;;;;;;;17.17;3.67;;;16.80;99.90;;;;;;4998367;28;20027;-70
2023/05/27 08:21:56;;;;;;;11.90;4.00;;;17.10;99.90;;;;;;4997934;28;20019;-70
2023/05/27 08:24:22;;;;;;;8.23;3.85;;;17.20;99.90;;;;;;4997889;28;20165;-70
2023/05/27 08:26:49;;;;;;;11.80;3.55;;;17.40;99.90;;;;;;4999602;28;20094;-70
2023/05/27 08:29:14;;;;;;;12.88;3.13;;;17.50;99.90;;;;;;4998682;28;20022;-70
2023/05/27 08:31:40;;;;;;;13.57;3.45;;;17.70;99.90;;;;;;4999390;28;20046;-70
2023/05/27 08:34:06;;;;;;;13.77;3.40;;;17.80;99.90;;;;;;4998189;28;20033;-70
2023/05/27 08:36:31;;;;;;;14.95;3.00;;;17.90;99.90;;;;;;4998068;28;20117;-70
2023/05/27 08:38:57;;;;;;;10.43;3.67;;;18.00;99.90;;;;;;4998270;28;20070;-70
2023/05/27 08:41:23;;;;;;;8.55;2.95;;;18.20;99.90;;;;;;4998070;28;20029;-70
2023/05/27 08:43:49;;;;;;;13.23;3.60;;;18.20;99.90;;;;;;4997850;28;20027;-70
2023/05/27 08:46:15;;;;;;;13.02;3.72;;;18.20;99.90;;;;;;4998203;28;20022;-70
2023/05/27 08:48:41;;;;;;;16.08;3.47;;;18.10;99.90;;;;;;4997831;28;20065;-70
2023/05/27 08:51:09;;;;;;;13.32;2.97;;;18.30;99.90;;;;;;4997947;28;20019;-70
2023/05/27 08:53:35;;;;;;;12.73;3.20;;;18.50;99.90;;;;;;4998339;28;20033;-70
2023/05/27 08:56:02;;;;;;;14.32;2.92;;;18.40;99.90;;;;;;4998080;28;20030;-70
2023/05/27 08:58:28;;;;;;;9.82;3.20;;;18.30;99.90;;;;;;4997708;28;20026;-70
2023/05/27 09:00:54;;;;;;;10.38;3.38;;;18.30;99.90;;;;;;4998050;28;20029;-70
2023/05/27 09:03:20;;;;;;;16.88;3.42;;;18.70;99.90;;;;;;4998447;28;20026;-70
2023/05/27 09:05:46;;;;;;;11.07;3.20;;;19.00;99.90;;;;;;4997466;28;20023;-70
2023/05/27 09:08:12;;;;;;;13.82;3.20;;;19.00;99.90;;;;;;4997834;28;20029;-70
2023/05/27 09:10:42;;;;;;;9.00;3.05;;;18.90;99.90;;;;;;4997610;28;20030;-70
2023/05/27 09:13:08;;;;;;;12.90;2.97;;;19.10;99.90;;;;;;4998329;28;20023;-70
2023/05/27 09:15:34;;;;;;;10.75;3.28;;;19.00;99.90;;;;;;4997407;28;20050;-70
2023/05/27 09:18:02;;;;;;;13.52;3.28;;;19.00;99.90;;;;;;4998586;28;20101;-70
2023/05/27 09:20:28;;;;;;;11.55;3.38;;;19.40;99.90;;;;;;4997537;28;20113;-70
2023/05/27 09:23:02;;;;;;;12.65;3.53;;;19.40;99.90;;;;;;4997255;28;20034;-70
2023/05/27 09:25:28;;;;;;;9.77;3.40;;;19.50;99.90;;;;;;4998968;28;20069;-70
2023/05/27 09:27:54;;;;;;;9.68;2.97;;;19.70;99.90;;;;;;4998266;28;20027;-70
2023/05/27 09:30:21;;;;;;;10.55;3.35;;;19.70;99.90;;;;;;4997204;28;20025;-70
2023/05/27 09:32:47;;;;;;;12.57;3.47;;;19.50;99.90;;;;;;4998076;28;20030;-70
2023/05/27 09:35:15;;;;;;;10.88;3.22;;;19.70;99.90;;;;;;4996984;28;20032;-70
2023/05/27 09:37:41;;;;;;;7.78;2.50;;;19.70;99.90;;;;;;4997078;28;20053;-70
2023/05/27 09:40:09;;;;;;;16.10;3.58;;;19.80;99.90;;;;;;4994927;28;20030;-70
2023/05/27 09:42:44;;;;;;;10.32;3.17;;;19.80;99.90;;;;;;4997569;28;20111;-70
2023/05/27 09:45:16;;;;;;;10.38;2.90;;;19.90;99.90;;;;;;4996743;28;20026;-70
2023/05/27 09:47:42;;;;;;;;;;;19.80;99.90;;;;;;4997289;28;20022;-70
2023/05/27 09:50:09;;;;;;;8.77;2.97;;;19.90;99.90;;;;;;4996911;28;19909;-70
2023/05/27 09:52:39;;;;;;;9.07;3.05;;;20.20;99.90;;;;;;4997676;28;20022;-70
2023/05/27 09:55:07;;;;;;;9.55;2.80;;;20.40;99.90;;;;;;4996909;28;20053;-70
2023/05/27 09:57:33;;;;;;;12.48;3.08;;;20.40;99.90;;;;;;4998099;28;20037;-70
2023/05/27 10:00:00;;;;;;;9.32;3.33;;;20.70;99.90;;;;;;4996962;28;20026;-70
2023/05/27 10:02:25;;;;;;;7.88;2.88;;;20.80;99.90;;;;;;4996876;28;20077;-70
2023/05/27 10:04:52;;;;;;;9.27;2.67;;;21.10;99.90;;;;;;4997002;28;20026;-70
2023/05/27 10:07:20;;;;;;;10.88;3.25;;;21.20;99.90;;;;;;4997141;28;20018;-70
2023/05/27 10:09:46;;;;;;;13.65;3.67;;;21.40;99.90;;;;;;4997610;28;20018;-70
2023/05/27 10:12:13;;;;;;;10.60;3.42;;;21.40;99.90;;;;;;4996778;28;20025;-70
2023/05/27 10:14:39;;;;;;;7.00;2.53;;;21.30;99.90;;;;;;4996542;28;20027;-70
2023/05/27 10:17:05;;;;;;;11.90;2.25;;;21.10;99.90;;;;;;4996674;28;20113;-70
2023/05/27 10:19:30;;;;;;;11.63;3.28;;;21.30;99.90;;;;;;4996720;28;20038;-70
2023/05/27 10:21:56;;;;;;;10.48;2.70;;;21.40;99.90;;;;;;4997593;28;20113;-70
2023/05/27 10:24:32;;;;;;;12.00;3.20;;;21.40;99.90;;;;;;4997372;28;20045;-70
2023/05/27 10:27:02;;;;;;;8.85;2.67;;;21.40;99.90;;;;;;4996587;28;20022;-70
2023/05/27 10:29:37;;;;;;;8.10;2.70;;;21.30;99.90;;;;;;4996552;28;20027;-70
2023/05/27 10:32:03;;;;;;;12.02;3.03;;;22.00;99.90;;;;;;4997778;28;20023;-70
2023/05/27 10:34:36;;;;;;;8.70;3.25;;;22.30;99.90;;;;;;4996424;28;20022;-70
2023/05/27 10:37:02;;;;;;;8.30;2.70;;;22.20;99.00;;;;;;4997413;28;20022;-70
2023/05/27 10:39:28;;;;;;;9.65;3.13;;;22.30;99.90;;;;;;4996454;28;20026;-70
2023/05/27 10:41:55;;;;;;;10.55;3.45;;;22.80;97.90;;;;;;4996543;28;20034;-70
2023/05/27 10:44:28;;;;;;;9.82;2.92;;;22.80;99.80;;;;;;4997107;28;20023;-70
2023/05/27 10:47:02;;;;;;;9.55;2.65;;;23.00;96.90;;;;;;4998982;28;20022;-70
2023/05/27 10:49:35;;;;;;;10.57;3.13;;;23.40;98.50;;;;;;5000692;28;20121;-70
2023/05/27 10:52:13;;;;;;;12.63;3.33;;;23.40;95.70;;;;;;5000104;28;20061;-70
2023/05/27 10:54:40;;;;;;;12.40;3.38;;;23.60;94.60;;;;;;5000152;28;20113;-70
2023/05/27 10:57:07;;;;;;;11.77;3.60;;;23.70;94.60;;;;;;5000066;28;20027;-70
2023/05/27 10:59:53;;;;;;;11.52;3.33;;;24.00;92.90;;;;;;5000037;28;20023;-70
2023/05/27 11:02:20;;;;;;;7.75;2.75;;;24.20;92.60;;;;;;5000756;28;20031;-70
2023/05/27 11:04:46;;;;;;;14.48;3.35;;;24.00;91.30;;;;;;5000177;28;20018;-70
2023/05/27 11:07:17;;;;;;;8.65;2.90;;;23.80;91.00;;;;;;4999912;28;20034;-70
2023/05/27 11:09:51;;;;;;;9.02;3.05;;;24.00;91.10;;;;;;5000767;28;20019;-70
2023/05/27 11:12:22;;;;;;;11.82;3.25;;;24.30;91.20;;;;;;5000641;28;20038;-70
2023/05/27 11:14:50;;;;;;;11.10;3.10;;;24.60;92.20;;;;;;4999668;28;20027;-70
2023/05/27 11:17:16;;;;;;;7.57;2.92;;;24.50;93.40;;;;;;4999994;28;20030;-70
2023/05/27 11:19:42;;;;;;;9.10;2.92;;;24.90;93.00;;;;;;4999864;28;20018;-70
2023/05/27 11:22:09;;;;;;;11.88;3.58;;;25.00;86.10;;;;;;4999475;28;20022;-70
2023/05/27 11:24:36;;;;;;;9.00;2.85;;;24.90;81.40;;;;;;4999509;28;20053;-70
2023/05/27 11:27:12;;;;;;;10.82;3.28;;;24.90;85.00;;;;;;4999841;28;20065;-70
2023/05/27 11:29:38;;;;;;;9.48;3.03;;;25.30;84.90;;;;;;4999433;28;20046;-70
2023/05/27 11:32:07;;;;;;;8.80;2.80;;;25.20;81.20;;;;;;5000274;28;20033;-70
2023/05/27 11:34:35;;;;;;;6.35;2.90;;;25.40;82.10;;;;;;5000016;28;20054;-70
2023/05/27 11:37:05;;;;;;;12.80;3.13;;;25.40;78.60;;;;;;4999215;28;20027;-70
2023/05/27 11:39:31;;;;;;;7.95;3.10;;;25.50;77.50;;;;;;4999513;28;20033;-70
2023/05/27 11:41:57;;;;;;;7.38;3.20;;;25.70;77.90;;;;;;4999240;28;20026;-70
2023/05/27 11:44:25;;;;;;;8.68;3.22;;;25.50;75.40;;;;;;4999214;28;20084;-70
2023/05/27 11:46:52;;;;;;;8.40;3.10;;;25.80;77.20;;;;;;4999076;28;20045;-71
2023/05/27 11:49:19;;;;;;;7.32;2.75;;;25.90;73.10;;;;;;4999038;28;20033;-71
2023/05/27 11:51:46;;;;;;;9.35;2.85;;;26.00;74.90;;;;;;4999074;28;20030;-71
2023/05/27 11:54:25;;;;;;;7.07;3.10;;;26.00;72.70;;;;;;4999873;28;20027;-71
2023/05/27 11:56:52;;;;;;;10.02;3.33;;;26.10;71.90;;;;;;4999732;28;20061;-71
2023/05/27 11:59:19;;;;;;;6.95;2.78;;;25.70;68.30;;;;;;4998874;28;20023;-71
2023/05/27 12:01:45;;;;;;;7.40;2.80;;;25.70;67.50;;;;;;4999237;28;20034;-71
2023/05/27 12:04:11;;;;;;;11.40;3.00;;;25.90;68.90;;;;;;4999512;28;20065;-71
2023/05/27 12:06:37;;;;;;;7.95;2.75;;;26.20;68.00;;;;;;4998739;28;20039;-70
2023/05/27 12:09:07;;;;;;;4.97;2.88;;;26.00;66.80;;;;;;4999817;28;20054;-70
2023/05/27 12:11:33;;;;;;;5.67;2.43;;;26.10;67.40;;;;;;4999710;28;20053;-71
2023/05/27 12:13:59;;;;;;;7.15;2.70;;;26.30;68.90;;;;;;4999126;28;20061;-71
2023/05/27 12:16:25;;;;;;;6.50;2.47;;;26.70;70.40;;;;;;4999429;28;20026;-71
2023/05/27 12:18:50;;;;;;;7.13;2.65;;;26.90;69.20;;;;;;4999388;28;20061;-70
2023/05/27 12:21:16;;;;;;;7.43;2.88;;;26.60;66.40;;;;;;4999330;28;20026;-70
2023/05/27 12:23:42;;;;;;;9.30;2.88;;;27.00;65.40;;;;;;5021941;22;20038;-69
2023/05/27 12:26:08;;;;;;;7.07;3.13;;;27.30;65.50;;;;;;4979481;28;20121;-68
2023/05/27 12:28:33;;;;;;;7.47;3.00;;;27.00;64.70;;;;;;4995305;28;20141;-68
2023/05/27 12:31:00;;;;;;;7.82;2.97;;;26.90;63.10;;;;;;4978810;28;20050;-68
2023/05/27 12:33:25;;;;;;;6.78;2.90;;;26.90;62.50;;;;;;4995399;28;20023;-68
2023/05/27 12:35:51;;;;;;;6.00;2.92;;;26.80;62.90;;;;;;4978998;28;20018;-68
2023/05/27 12:38:17;;;;;;;9.68;2.95;;;26.50;61.20;;;;;;4978813;28;20029;-68